Time;durP1;ratioP1;P1;durP2;ratioP2;P2;SDS_P1;SDS_P2;PMS_P1;PMS_P2;Temp;Humidity;BMP_temperature;BMP_pressure;BME280_temperature;BME280_humidity;BME280_pressure;Samples;Min_cycle;Max_cycle;Signal;HPM_P1;HPM_P2
2023/12/11 00:01:14;;;;;;;6.22;4.28;;;;;;;1.19;100.00;99837.28;5075121;28;20115;-71
2023/12/11 00:03:40;;;;;;;5.60;4.10;;;;;;;1.20;100.00;99828.38;5056550;28;20062;-70
2023/12/11 00:06:05;;;;;;;5.75;4.38;;;;;;;1.21;100.00;99821.25;5075017;28;20041;-71
2023/12/11 00:08:32;;;;;;;5.70;4.13;;;;;;;1.20;100.00;99819.59;5075674;28;20035;-69
2023/12/11 00:10:58;;;;;;;5.88;4.65;;;;;;;1.21;100.00;99819.44;5056981;28;20024;-70
2023/12/11 00:13:23;;;;;;;6.50;5.05;;;;;;;1.10;100.00;99785.31;5075195;28;20120;-69
2023/12/11 00:15:49;;;;;;;5.13;4.20;;;;;;;1.20;100.00;99801.06;5075245;28;20016;-69
2023/12/11 00:18:14;;;;;;;5.60;3.80;;;;;;;1.18;100.00;99806.50;5041247;28;20029;-71
2023/12/11 00:20:40;;;;;;;5.30;4.10;;;;;;;1.16;100.00;99789.97;5058164;28;20033;-71
2023/12/11 00:23:06;;;;;;;5.57;4.10;;;;;;;1.22;100.00;99802.53;5075469;28;20131;-70
2023/12/11 00:25:32;;;;;;;4.82;3.67;;;;;;;1.22;100.00;99799.06;5058044;28;20035;-73
2023/12/11 00:27:57;;;;;;;5.43;4.13;;;;;;;1.23;100.00;99806.03;5075279;28;20020;-69
2023/12/11 00:30:24;;;;;;;6.03;3.80;;;;;;;1.04;100.00;99770.06;5057984;28;20021;-72
2023/12/11 00:32:50;;;;;;;5.20;3.75;;;;;;;1.23;100.00;99796.25;5041318;28;20033;-72
2023/12/11 00:35:15;;;;;;;4.70;3.67;;;;;;;1.24;100.00;99795.25;5057793;28;20444;-70
2023/12/11 00:37:41;;;;;;;4.45;3.35;;;;;;;1.27;100.00;99792.28;5040967;28;20040;-72
2023/12/11 00:40:07;;;;;;;4.95;3.72;;;;;;;1.24;100.00;99789.94;5076841;28;20052;-75
2023/12/11 00:42:32;;;;;;;5.28;3.28;;;;;;;1.27;100.00;99791.47;5060830;28;20060;-70
2023/12/11 00:44:58;;;;;;;5.00;3.70;;;;;;;1.27;100.00;99797.56;5060959;28;20040;-71
2023/12/11 00:47:23;;;;;;;4.88;3.50;;;;;;;1.26;100.00;99792.44;5060867;28;20555;-71
2023/12/11 00:49:48;;;;;;;5.63;3.58;;;;;;;1.24;100.00;99797.91;5078869;28;20042;-71
2023/12/11 00:52:14;;;;;;;5.38;3.83;;;;;;;1.21;100.00;99805.34;5060914;28;20098;-70
2023/12/11 00:54:40;;;;;;;6.38;4.10;;;;;;;1.16;100.00;99789.97;5060887;28;20040;-71
2023/12/11 00:57:05;;;;;;;6.85;3.80;;;;;;;1.28;100.00;99798.41;5078219;28;20021;-69
2023/12/11 00:59:30;;;;;;;5.88;4.20;;;;;;;1.16;100.00;99795.25;5060921;28;20036;-71
2023/12/11 01:01:56;;;;;;;5.82;3.85;;;;;;;1.21;100.00;99802.69;5060893;28;20025;-74
2023/12/11 01:04:21;;;;;;;5.78;4.05;;;;;;;1.18;100.00;99809.16;5078782;28;20085;-69
2023/12/11 01:06:47;;;;;;;5.88;3.75;;;;;;;1.17;100.00;99797.72;5078393;28;20359;-74
2023/12/11 01:09:12;;;;;;;5.25;4.30;;;;;;;1.19;100.00;99794.91;5060147;28;20094;-72
2023/12/11 01:11:38;;;;;;;5.28;3.58;;;;;;;1.17;100.00;99802.19;5061039;28;20028;-71
2023/12/11 01:14:04;;;;;;;5.82;4.20;;;;;;;1.10;100.00;99791.44;5043664;28;20039;-74
2023/12/11 01:16:29;;;;;;;5.28;3.90;;;;;;;1.11;100.00;99786.94;5043882;28;20024;-72
2023/12/11 01:18:55;;;;;;;6.40;4.07;;;;;;;1.14;100.00;99791.94;5060744;28;20032;-71
2023/12/11 01:21:20;;;;;;;5.57;4.30;;;;;;;1.11;100.00;99789.59;5060679;28;20036;-71
2023/12/11 01:23:45;;;;;;;5.63;3.80;;;;;;;1.10;100.00;99786.13;5078159;28;20025;-70
2023/12/11 01:26:11;;;;;;;7.22;3.97;;;;;;;1.11;100.00;99792.25;5060782;28;20028;-72
2023/12/11 01:28:36;;;;;;;5.90;3.72;;;;;;;1.15;100.00;99793.56;5060752;28;20028;-71
2023/12/11 01:31:02;;;;;;;6.63;4.13;;;;;;;1.09;100.00;99787.13;5060477;28;20028;-70
2023/12/11 01:33:27;;;;;;;5.25;3.78;;;;;;;1.11;100.00;99785.13;5060328;28;20070;-72
2023/12/11 01:35:53;;;;;;;5.68;3.90;;;;;;;1.16;100.00;99790.78;5060752;28;20074;-69
2023/12/11 01:38:20;;;;;;;5.65;4.35;;;;;;;1.09;100.00;99787.13;5043828;28;20034;-69
2023/12/11 01:40:45;;;;;;;6.03;4.30;;;;;;;1.12;100.00;99788.59;5078384;28;20449;-69
2023/12/11 01:43:15;;;;;;;5.18;3.83;;;;;;;1.13;100.00;99790.28;5077486;28;20057;-69
2023/12/11 01:45:41;;;;;;;5.03;3.97;;;;;;;1.10;100.00;99793.25;5043568;28;20036;-70
2023/12/11 01:48:11;;;;;;;5.53;4.50;;;;;;;1.09;100.00;99786.28;5059770;28;20032;-71
2023/12/11 01:50:38;;;;;;;7.30;4.72;;;;;;;0.90;100.00;99759.09;5060919;28;20054;-70
2023/12/11 01:53:05;;;;;;;6.15;4.68;;;;;;;0.99;100.00;99777.66;5059983;28;20110;-71
2023/12/11 01:55:33;;;;;;;7.05;4.85;;;;;;;1.06;100.00;99783.94;5043470;28;20035;-70
2023/12/11 01:58:00;;;;;;;5.53;4.45;;;;;;;0.98;100.00;99776.00;5059998;28;20038;-71
2023/12/11 02:00:26;;;;;;;6.40;4.78;;;;;;;1.02;100.00;99787.91;5077486;28;20025;-71
2023/12/11 02:02:51;;;;;;;6.45;4.90;;;;;;;1.02;100.00;99785.28;5077636;28;20025;-70
2023/12/11 02:05:17;;;;;;;6.55;4.45;;;;;;;0.96;100.00;99784.13;5077750;28;20036;-75
2023/12/11 02:07:43;;;;;;;6.50;5.07;;;;;;;0.77;100.00;99753.44;5077896;28;20033;-71
2023/12/11 02:10:09;;;;;;;6.05;4.40;;;;;;;0.92;100.00;99772.16;5055331;28;20032;-71
2023/12/11 02:12:34;;;;;;;6.97;4.78;;;;;;;0.94;100.00;99786.09;5042382;28;20029;-71
2023/12/11 02:15:00;;;;;;;7.18;5.00;;;;;;;0.75;100.00;99752.78;5042866;28;20039;-71
2023/12/11 02:17:25;;;;;;;7.15;5.10;;;;;;;0.87;100.00;99777.13;5076250;28;20397;-69
2023/12/11 02:19:51;;;;;;;6.72;5.13;;;;;;;0.82;100.00;99774.97;5076185;28;20062;-69
2023/12/11 02:22:17;;;;;;;7.55;5.15;;;;;;;0.72;100.00;99768.16;5057058;28;20025;-70
2023/12/11 02:24:47;;;;;;;6.43;5.07;;;;;;;0.76;100.00;99770.31;5058853;28;20028;-69
2023/12/11 02:27:13;;;;;;;7.10;5.47;;;;;;;0.74;100.00;99776.78;5058888;28;20024;-74
2023/12/11 02:29:39;;;;;;;6.38;4.30;;;;;;;0.75;100.00;99773.13;5059227;28;20025;-71
2023/12/11 02:32:04;;;;;;;8.27;5.22;;;;;;;0.76;100.00;99772.13;5059424;28;20024;-68
2023/12/11 02:34:30;;;;;;;7.38;4.70;;;;;;;0.72;100.00;99765.50;5058726;28;20028;-69
2023/12/11 02:36:55;;;;;;;7.07;4.85;;;;;;;0.53;100.00;99740.13;5026348;28;20024;-68
2023/12/11 02:39:21;;;;;;;6.70;4.95;;;;;;;0.69;100.00;99764.81;5076886;28;20537;-73
2023/12/11 02:41:46;;;;;;;6.22;4.70;;;;;;;0.63;100.00;99754.91;5059470;28;20043;-69
2023/12/11 02:44:11;;;;;;;6.07;4.78;;;;;;;0.67;100.00;99766.00;5076439;28;20017;-70
2023/12/11 02:46:40;;;;;;;7.53;5.03;;;;;;;0.63;100.00;99768.13;5076996;28;20056;-69
2023/12/11 02:49:05;;;;;;;6.57;4.85;;;;;;;0.50;100.00;99735.16;5076940;28;20038;-69
2023/12/11 02:51:31;;;;;;;6.30;4.70;;;;;;;0.63;100.00;99762.00;5057936;28;20107;-68
2023/12/11 02:53:56;;;;;;;5.20;4.32;;;;;;;-0.07;100.00;99651.09;5073886;28;20028;-68
2023/12/11 02:56:21;;;;;;;7.63;4.78;;;;;;;0.63;100.00;99762.00;5058233;28;20032;-67
2023/12/11 02:58:47;;;;;;;5.97;4.53;;;;;;;0.58;100.00;99751.06;5076248;28;20024;-68
2023/12/11 03:01:12;;;;;;;5.97;4.40;;;;;;;0.53;100.00;99753.34;5075969;28;20029;-69
2023/12/11 03:03:38;;;;;;;6.20;4.57;;;;;;;0.51;100.00;99750.06;5041416;28;20164;-67
2023/12/11 03:06:04;;;;;;;5.82;4.18;;;;;;;0.51;100.00;99752.69;5056668;28;20033;-68
2023/12/11 03:08:29;;;;;;;4.60;3.75;;;;;;;0.47;100.00;99753.03;5075684;28;20032;-68
2023/12/11 03:10:55;;;;;;;4.55;3.15;;;;;;;0.36;100.00;99734.75;5057976;28;20031;-68
2023/12/11 03:13:20;;;;;;;6.90;4.00;;;;;;;0.50;100.00;99753.66;5057734;28;20028;-67
2023/12/11 03:15:46;;;;;;;4.97;4.10;;;;;;;0.30;100.00;99722.19;5076022;28;20047;-67
2023/12/11 03:18:11;;;;;;;5.05;4.00;;;;;;;0.44;100.00;99745.41;5057392;28;20096;-72
2023/12/11 03:20:36;;;;;;;5.43;4.00;;;;;;;0.49;100.00;99759.97;5058516;28;20028;-68
2023/12/11 03:23:02;;;;;;;5.18;4.05;;;;;;;0.47;100.00;99760.97;5041379;28;20521;-67
2023/12/11 03:25:27;;;;;;;4.80;3.65;;;;;;;0.44;100.00;99750.69;5075792;28;20086;-67
2023/12/11 03:27:53;;;;;;;5.53;4.07;;;;;;;0.44;100.00;99752.50;5058379;28;20070;-67
2023/12/11 03:30:18;;;;;;;4.22;3.45;;;;;;;0.46;100.00;99745.22;5058315;28;20033;-66
2023/12/11 03:32:44;;;;;;;5.30;3.97;;;;;;;0.45;100.00;99749.69;5041328;28;20032;-66
2023/12/11 03:35:09;;;;;;;5.20;3.67;;;;;;;0.45;100.00;99759.47;5057752;28;20382;-67
2023/12/11 03:37:35;;;;;;;4.32;3.42;;;;;;;0.45;100.00;99748.88;5057868;28;20078;-67
2023/12/11 03:40:00;;;;;;;4.97;3.70;;;;;;;0.44;100.00;99753.34;5054258;28;20130;-67
2023/12/11 03:42:25;;;;;;;6.07;3.95;;;;;;;0.39;100.00;99749.50;5054613;28;20028;-67
2023/12/11 03:44:51;;;;;;;4.95;3.72;;;;;;;0.41;100.00;99748.38;5037940;28;20110;-68
2023/12/11 03:47:17;;;;;;;5.25;3.78;;;;;;;0.41;100.00;99753.66;5054366;28;20037;-67
2023/12/11 03:49:42;;;;;;;4.05;3.42;;;;;;;0.42;100.00;99750.00;5055545;28;20025;-67
2023/12/11 03:52:08;;;;;;;4.18;3.10;;;;;;;0.39;100.00;99746.84;5054423;28;20025;-67
2023/12/11 03:54:33;;;;;;;4.43;3.58;;;;;;;0.41;100.00;99748.38;5020976;28;20036;-67
2023/12/11 03:56:59;;;;;;;5.78;3.90;;;;;;;0.47;100.00;99758.31;5056099;28;20033;-68
2023/12/11 03:59:24;;;;;;;4.53;3.70;;;;;;;0.46;100.00;99758.47;5038428;28;20115;-67
2023/12/11 04:01:50;;;;;;;5.60;3.28;;;;;;;0.47;100.00;99753.03;5056043;28;20040;-66
2023/12/11 04:04:15;;;;;;;5.05;3.70;;;;;;;0.47;100.00;99760.13;5054675;28;20025;-67
2023/12/11 04:06:42;;;;;;;5.50;3.63;;;;;;;0.47;100.00;99763.59;5055067;28;20033;-67
2023/12/11 04:09:07;;;;;;;3.97;3.25;;;;;;;0.46;100.00;99756.66;5055324;28;20067;-68
2023/12/11 04:11:34;;;;;;;5.60;3.53;;;;;;;0.49;100.00;99760.78;5054221;28;20033;-68
2023/12/11 04:13:59;;;;;;;3.95;3.03;;;;;;;0.46;100.00;99761.97;5055793;28;20021;-68
2023/12/11 04:16:25;;;;;;;5.30;3.78;;;;;;;0.49;100.00;99755.50;5059625;28;20395;-68
2023/12/11 04:18:50;;;;;;;5.80;3.88;;;;;;;0.52;100.00;99754.34;5058183;28;20033;-68
2023/12/11 04:21:16;;;;;;;3.67;3.20;;;;;;;0.51;100.00;99750.06;5059666;28;20144;-68
2023/12/11 04:23:41;;;;;;;5.88;3.97;;;;;;;0.54;100.00;99747.09;5059668;28;20428;-68
2023/12/11 04:26:06;;;;;;;6.57;3.45;;;;;;;0.53;100.00;99750.72;5059669;28;20521;-67
2023/12/11 04:28:32;;;;;;;4.20;3.15;;;;;;;0.55;100.00;99751.38;5042123;28;20577;-67
2023/12/11 04:30:57;;;;;;;4.95;3.88;;;;;;;0.58;100.00;99751.06;5058096;28;20033;-67
2023/12/11 04:33:23;;;;;;;4.20;3.42;;;;;;;0.59;100.00;99750.06;5059254;28;20094;-66
2023/12/11 04:35:48;;;;;;;4.38;3.58;;;;;;;0.42;100.00;99723.53;5059596;28;20088;-67
2023/12/11 04:38:14;;;;;;;5.30;3.97;;;;;;;0.61;100.00;99746.28;5064577;28;20029;-74
2023/12/11 04:40:39;;;;;;;6.07;3.90;;;;;;;0.63;100.00;99746.09;5084332;28;20262;-69
2023/12/11 04:43:05;;;;;;;4.78;3.92;;;;;;;0.64;100.00;99748.59;5049019;28;20028;-67
2023/12/11 04:45:30;;;;;;;6.90;4.05;;;;;;;0.63;100.00;99748.75;5084546;28;20036;-67
2023/12/11 04:47:56;;;;;;;5.32;3.90;;;;;;;0.67;100.00;99745.63;5083968;28;20021;-67
2023/12/11 04:50:22;;;;;;;5.30;3.90;;;;;;;0.70;100.00;99744.50;5062356;28;20101;-67
2023/12/11 04:52:47;;;;;;;5.47;3.67;;;;;;;0.70;100.00;99736.56;5078975;28;20074;-68
2023/12/11 04:55:13;;;;;;;4.78;3.70;;;;;;;0.63;100.00;99725.78;5079132;28;20032;-68
2023/12/11 04:57:38;;;;;;;4.75;3.45;;;;;;;0.70;100.00;99736.56;5060582;28;20506;-68
2023/12/11 05:00:05;;;;;;;4.03;3.63;;;;;;;0.54;100.00;99705.56;5043996;28;20046;-68
2023/12/11 05:02:30;;;;;;;5.10;3.70;;;;;;;0.72;100.00;99728.44;5078820;28;20052;-68
2023/12/11 05:04:56;;;;;;;5.03;3.60;;;;;;;0.73;100.00;99735.38;5078795;28;20112;-67
2023/12/11 05:07:22;;;;;;;5.10;3.97;;;;;;;0.73;100.00;99732.72;5060300;28;20031;-67
2023/12/11 05:09:47;;;;;;;4.63;3.60;;;;;;;0.75;100.00;99736.88;5060080;28;20513;-69
2023/12/11 05:12:12;;;;;;;4.32;3.50;;;;;;;0.74;100.00;99732.59;5059301;28;20669;-71
2023/12/11 05:14:38;;;;;;;5.75;3.80;;;;;;;0.71;100.00;99727.63;5060180;28;20040;-67
2023/12/11 05:17:03;;;;;;;4.43;3.53;;;;;;;0.81;100.00;99736.25;5060002;28;20051;-69
2023/12/11 05:19:28;;;;;;;5.80;3.33;;;;;;;0.78;100.00;99733.91;5043968;28;20040;-69
2023/12/11 05:21:55;;;;;;;4.45;3.65;;;;;;;0.80;100.00;99739.06;5060360;28;20090;-68
2023/12/11 05:24:21;;;;;;;4.82;3.47;;;;;;;0.77;100.00;99732.25;5077672;28;20032;-67
2023/12/11 05:26:46;;;;;;;5.28;3.28;;;;;;;0.80;100.00;99734.59;5059951;28;20044;-65
2023/12/11 05:29:11;;;;;;;4.72;3.15;;;;;;;0.81;100.00;99738.88;5060556;28;20028;-68
2023/12/11 05:31:37;;;;;;;4.20;2.65;;;;;;;0.85;100.00;99742.03;5059783;28;20086;-68
2023/12/11 05:34:02;;;;;;;4.63;3.30;;;;;;;0.87;100.00;99732.94;5042784;28;20076;-68
2023/12/11 05:36:28;;;;;;;4.45;2.97;;;;;;;0.84;100.00;99732.44;5043725;28;20082;-69
2023/12/11 05:38:53;;;;;;;4.18;3.10;;;;;;;0.81;100.00;99730.94;5056833;28;20080;-68
2023/12/11 05:41:18;;;;;;;3.40;2.95;;;;;;;0.86;100.00;99736.59;5040802;28;20124;-68
2023/12/11 05:43:44;;;;;;;4.25;3.30;;;;;;;0.87;100.00;99737.41;5058433;28;20025;-69
2023/12/11 05:46:10;;;;;;;5.38;3.13;;;;;;;0.88;100.00;99739.88;5041058;28;20025;-68
2023/12/11 05:48:36;;;;;;;3.45;2.50;;;;;;;0.90;100.00;99742.38;5057394;28;20471;-67
2023/12/11 05:51:01;;;;;;;5.50;3.28;;;;;;;0.91;100.00;99739.56;5058287;28;20035;-68
2023/12/11 05:53:26;;;;;;;3.45;2.92;;;;;;;0.90;100.00;99737.91;5037391;28;20101;-68
2023/12/11 05:55:52;;;;;;;3.30;2.80;;;;;;;0.89;100.00;99741.56;5040999;28;20024;-71
2023/12/11 05:58:17;;;;;;;4.00;3.10;;;;;;;0.90;100.00;99735.25;5057251;28;20115;-69
2023/12/11 06:00:44;;;;;;;3.80;3.22;;;;;;;0.90;100.00;99737.91;5055252;28;20041;-70
2023/12/11 06:03:10;;;;;;;3.33;2.78;;;;;;;0.87;100.00;99735.59;5040491;28;20117;-68
2023/12/11 06:05:35;;;;;;;3.88;2.90;;;;;;;0.92;100.00;99743.03;5057525;28;20048;-68
2023/12/11 06:08:01;;;;;;;3.80;2.90;;;;;;;0.94;100.00;99739.25;5057146;28;20033;-68
2023/12/11 06:10:26;;;;;;;3.03;2.47;;;;;;;0.96;100.00;99740.88;5040770;28;20108;-68
2023/12/11 06:12:51;;;;;;;3.53;2.78;;;;;;;0.92;100.00;99741.22;5055271;28;20478;-69
2023/12/11 06:15:17;;;;;;;3.25;2.85;;;;;;;0.87;100.00;99726.81;5055861;28;20043;-68
2023/12/11 06:17:42;;;;;;;3.47;2.35;;;;;;;0.94;100.00;99744.53;5054187;28;20112;-69
2023/12/11 06:20:09;;;;;;;2.97;2.60;;;;;;;0.98;100.00;99741.56;5054537;28;20514;-67
2023/12/11 06:22:35;;;;;;;3.00;2.42;;;;;;;0.99;100.00;99733.44;5054902;28;20021;-68
2023/12/11 06:25:00;;;;;;;3.42;2.80;;;;;;;1.01;100.00;99743.88;5054743;28;20037;-71
2023/12/11 06:27:27;;;;;;;3.72;2.50;;;;;;;0.99;100.00;99738.75;5057501;28;20084;-68
2023/12/11 06:29:53;;;;;;;3.22;2.50;;;;;;;1.03;100.00;99736.63;5053119;28;20040;-69
2023/12/11 06:32:18;;;;;;;2.60;2.28;;;;;;;0.82;100.00;99705.28;5055738;28;20032;-68
2023/12/11 06:34:44;;;;;;;2.92;2.33;;;;;;;1.06;100.00;99741.56;5056855;28;20021;-70
2023/12/11 06:37:09;;;;;;;2.72;2.30;;;;;;;1.01;100.00;99734.13;5055191;28;20086;-68
2023/12/11 06:39:34;;;;;;;3.08;2.53;;;;;;;1.04;100.00;99744.38;5056301;28;20067;-69
2023/12/11 06:42:00;;;;;;;3.00;2.40;;;;;;;1.08;100.00;99739.59;5056996;28;20021;-74
2023/12/11 06:44:25;;;;;;;2.53;2.00;;;;;;;1.05;100.00;99746.03;5057538;28;20029;-71
2023/12/11 06:46:52;;;;;;;2.60;2.40;;;;;;;1.07;100.00;99744.06;5057273;28;20116;-68
2023/12/11 06:49:18;;;;;;;2.85;2.20;;;;;;;1.09;100.00;99746.53;5055781;28;20032;-72
2023/12/11 06:51:43;;;;;;;2.80;2.40;;;;;;;1.07;100.00;99743.25;5057281;28;20661;-67
2023/12/11 06:54:10;;;;;;;2.92;2.60;;;;;;;1.11;100.00;99748.03;5072461;28;20029;-70
2023/12/11 06:56:36;;;;;;;3.35;2.55;;;;;;;1.09;100.00;99744.75;5072578;28;20033;-68
2023/12/11 06:59:01;;;;;;;2.75;2.38;;;;;;;1.11;100.00;99749.88;5040328;28;20043;-68
2023/12/11 07:01:31;;;;;;;3.17;2.55;;;;;;;1.02;100.00;99730.47;5039428;28;20045;-68
2023/12/11 07:03:57;;;;;;;3.47;2.58;;;;;;;0.95;100.00;99718.88;5056356;28;20063;-68
2023/12/11 07:06:23;;;;;;;3.00;2.45;;;;;;;1.08;100.00;99739.59;5056202;28;20083;-70
2023/12/11 07:08:49;;;;;;;3.08;2.50;;;;;;;0.97;100.00;99719.56;5060227;28;20310;-69
2023/12/11 07:11:17;;;;;;;2.80;2.50;;;;;;;1.13;100.00;99747.88;5062865;28;20029;-68
2023/12/11 07:13:42;;;;;;;2.95;2.20;;;;;;;1.14;100.00;99753.00;5062105;28;20029;-70
2023/12/11 07:16:08;;;;;;;2.80;2.50;;;;;;;1.15;100.00;99751.19;5059169;28;20090;-68
2023/12/11 07:18:34;;;;;;;2.78;2.30;;;;;;;1.13;100.00;99748.72;5060706;28;20391;-66
2023/12/11 07:21:00;;;;;;;2.55;2.35;;;;;;;1.13;100.00;99745.25;5062049;28;20517;-69
2023/12/11 07:23:25;;;;;;;2.67;2.30;;;;;;;1.15;100.00;99751.19;5071873;28;20032;-71
2023/12/11 07:25:50;;;;;;;3.25;2.25;;;;;;;1.16;100.00;99753.69;5056513;28;20039;-70
2023/12/11 07:28:16;;;;;;;3.10;2.45;;;;;;;1.15;100.00;99757.31;5058036;28;20071;-75
2023/12/11 07:30:41;;;;;;;2.75;2.20;;;;;;;1.10;100.00;99745.56;5040071;28;20032;-79
2023/12/11 07:33:07;;;;;;;4.00;2.50;;;;;;;1.18;100.00;99764.94;5056596;28;20036;-70
2023/12/11 07:35:32;;;;;;;2.67;2.42;;;;;;;1.16;100.00;99768.75;5072237;28;20037;-72
2023/12/11 07:37:57;;;;;;;2.65;2.33;;;;;;;1.15;100.00;99767.09;5055895;28;20187;-78
2023/12/11 07:40:23;;;;;;;3.15;2.55;;;;;;;1.16;100.00;99764.28;5073352;28;20084;-69
2023/12/11 07:42:48;;;;;;;2.53;2.22;;;;;;;1.20;100.00;99769.25;5058671;28;20033;-68
2023/12/11 07:45:14;;;;;;;3.40;2.53;;;;;;;1.24;100.00;99766.09;5076840;28;20032;-70
2023/12/11 07:47:39;;;;;;;3.00;2.55;;;;;;;1.19;100.00;99768.41;5058660;28;20113;-69
2023/12/11 07:50:05;;;;;;;2.80;2.25;;;;;;;1.18;100.00;99766.75;5046292;28;20036;-70
2023/12/11 07:52:31;;;;;;;2.95;2.22;;;;;;;1.02;100.00;99750.84;5080842;28;20110;-71
2023/12/11 07:54:58;;;;;;;3.35;2.53;;;;;;;1.16;100.00;99772.22;5062442;28;20081;-67
2023/12/11 07:57:27;;;;;;;3.38;2.58;;;;;;;1.14;100.00;99760.97;5080459;28;20020;-70
2023/12/11 07:59:53;;;;;;;3.45;2.55;;;;;;;1.21;100.00;99769.06;5080652;28;20036;-70
2023/12/11 08:02:19;;;;;;;4.05;2.20;;;;;;;1.17;100.00;99776.53;5079405;28;20475;-70
2023/12/11 08:04:44;;;;;;;2.85;2.38;;;;;;;1.10;100.00;99764.09;5062057;28;20032;-70
2023/12/11 08:07:10;;;;;;;3.97;2.40;;;;;;;1.16;100.00;99780.19;5062299;28;20037;-70
2023/12/11 08:09:39;;;;;;;2.58;2.20;;;;;;;1.20;100.00;99780.69;5080192;28;20016;-70
2023/12/11 08:12:05;;;;;;;3.35;2.13;;;;;;;1.16;100.00;99774.06;5080109;28;20028;-69
2023/12/11 08:14:30;;;;;;;2.45;2.25;;;;;;;1.15;100.00;99785.63;5061291;28;20020;-70
2023/12/11 08:16:56;;;;;;;2.92;2.33;;;;;;;1.00;100.00;99764.25;5045364;28;20036;-70
2023/12/11 08:19:21;;;;;;;3.85;2.47;;;;;;;1.16;100.00;99788.13;5079657;28;20115;-71
2023/12/11 08:21:46;;;;;;;2.92;2.30;;;;;;;1.11;100.00;99776.34;5044755;28;20032;-70
2023/12/11 08:24:12;;;;;;;3.45;2.53;;;;;;;1.07;100.00;99773.19;5045270;28;20029;-72
2023/12/11 08:26:38;;;;;;;2.70;1.95;;;;;;;1.09;100.00;99789.78;5061578;28;20040;-71
2023/12/11 08:29:04;;;;;;;2.80;2.50;;;;;;;1.20;100.00;99804.53;5079426;28;20024;-73
2023/12/11 08:31:30;;;;;;;3.30;2.25;;;;;;;1.09;100.00;99783.63;5079556;28;20305;-73
2023/12/11 08:33:56;;;;;;;2.45;2.08;;;;;;;1.20;100.00;99798.41;5061824;28;20119;-69
2023/12/11 08:36:21;;;;;;;2.55;1.90;;;;;;;1.15;100.00;99799.69;5061781;28;20025;-71
2023/12/11 08:38:47;;;;;;;2.40;2.20;;;;;;;1.22;100.00;99796.41;5079671;28;20143;-72
2023/12/11 08:41:13;;;;;;;3.05;2.30;;;;;;;1.20;100.00;99801.88;5079764;28;20089;-71
2023/12/11 08:43:38;;;;;;;2.72;2.42;;;;;;;1.18;100.00;99787.94;5079545;28;20112;-71
2023/12/11 08:46:04;;;;;;;2.50;2.30;;;;;;;1.07;100.00;99788.28;5061426;28;20482;-74
2023/12/11 08:48:29;;;;;;;3.25;2.58;;;;;;;1.18;100.00;99809.16;5078139;28;20032;-74
2023/12/11 08:50:55;;;;;;;2.50;2.30;;;;;;;1.22;100.00;99805.19;5061838;28;20119;-70
2023/12/11 08:53:20;;;;;;;2.88;2.53;;;;;;;1.23;100.00;99804.19;5079316;28;20032;-74
2023/12/11 08:55:46;;;;;;;2.58;2.20;;;;;;;1.17;100.00;99813.63;5079605;28;20059;-71
2023/12/11 08:58:11;;;;;;;2.60;2.20;;;;;;;1.13;100.00;99812.28;5079640;28;20028;-73
2023/12/11 09:00:37;;;;;;;3.25;2.30;;;;;;;1.17;100.00;99818.09;5044750;28;20391;-70
2023/12/11 09:03:02;;;;;;;1.75;1.65;;;;;;;1.16;100.00;99817.28;5080054;28;20423;-70
2023/12/11 09:05:28;;;;;;;3.28;2.28;;;;;;;1.11;100.00;99805.50;5060994;28;20032;-71
2023/12/11 09:07:55;;;;;;;2.28;2.03;;;;;;;1.17;100.00;99812.81;5044707;28;20078;-69
2023/12/11 09:10:20;;;;;;;2.35;2.00;;;;;;;1.06;100.00;99815.75;5079436;28;20035;-69
2023/12/11 09:12:46;;;;;;;2.45;2.13;;;;;;;0.99;100.00;99804.97;5061549;28;20033;-69
2023/12/11 09:15:12;;;;;;;2.38;2.00;;;;;;;0.94;100.00;99802.81;5079286;28;20067;-74
2023/12/11 09:17:37;;;;;;;3.55;2.40;;;;;;;1.09;100.00;99831.31;5061164;28;20027;-73
2023/12/11 09:20:04;;;;;;;2.70;2.13;;;;;;;1.09;100.00;99829.53;5080069;28;20020;-74
2023/12/11 09:22:29;;;;;;;2.33;2.13;;;;;;;1.07;100.00;99839.44;5078169;28;20374;-73
2023/12/11 09:24:55;;;;;;;3.03;2.33;;;;;;;1.11;100.00;99842.59;5079028;28;20104;-71
2023/12/11 09:27:21;;;;;;;2.70;2.13;;;;;;;1.17;100.00;99845.41;5078526;28;20059;-72
2023/12/11 09:29:49;;;;;;;2.45;2.25;;;;;;;1.05;100.00;99822.84;5079387;28;20048;-69
2023/12/11 09:32:15;;;;;;;4.03;2.38;;;;;;;1.03;100.00;99832.81;5079083;28;20027;-70
2023/12/11 09:34:41;;;;;;;2.67;2.33;;;;;;;1.16;100.00;99848.25;5079436;28;20111;-69
2023/12/11 09:37:07;;;;;;;2.70;2.50;;;;;;;1.14;100.00;99845.75;5079299;28;20024;-75
2023/12/11 09:39:32;;;;;;;2.97;2.47;;;;;;;1.16;100.00;99842.94;5057042;28;20049;-69
2023/12/11 09:41:59;;;;;;;2.90;2.35;;;;;;;1.22;100.00;99847.56;5074139;28;20491;-69
2023/12/11 09:44:26;;;;;;;3.50;2.72;;;;;;;1.12;100.00;99841.59;5073922;28;20044;-70
2023/12/11 09:46:58;;;;;;;3.58;2.83;;;;;;;1.14;100.00;99842.28;5057318;28;20031;-73
2023/12/11 09:49:25;;;;;;;5.68;4.10;;;;;;;1.06;100.00;99844.88;5059001;28;20029;-70
2023/12/11 09:51:52;;;;;;;2.80;2.50;;;;;;;1.09;100.00;99855.16;5058743;28;20033;-75
2023/12/11 09:54:17;;;;;;;18.20;11.57;;;;;;;1.11;100.00;99861.13;5057410;28;20450;-69
2023/12/11 09:56:43;;;;;;;3.85;2.45;;;;;;;1.09;100.00;99855.16;5057912;28;20033;-71
2023/12/11 09:59:10;;;;;;;3.20;2.60;;;;;;;1.06;100.00;99858.13;5058937;28;20028;-71
2023/12/11 10:01:36;;;;;;;4.72;3.22;;;;;;;1.07;100.00;99851.84;5074174;28;20017;-72
2023/12/11 10:04:01;;;;;;;2.92;2.40;;;;;;;1.00;100.00;99856.97;5069460;28;20025;-70
2023/12/11 10:06:27;;;;;;;2.60;2.40;;;;;;;0.92;100.00;99849.81;5058865;28;20080;-72
2023/12/11 10:08:53;;;;;;;3.28;2.70;;;;;;;0.78;100.00;99823.94;5073792;28;20058;-73
2023/12/11 10:11:22;;;;;;;3.10;2.67;;;;;;;0.94;100.00;99853.13;5056876;28;20418;-71
2023/12/11 10:13:48;;;;;;;3.28;2.65;;;;;;;0.87;100.00;99859.25;5056856;28;20029;-72
2023/12/11 10:16:29;;;;;;;3.20;2.90;;;;;;;0.86;100.00;99868.16;5058825;28;20033;-76
2023/12/11 10:18:56;;;;;;;4.03;3.40;;;;;;;0.79;100.00;99846.78;5058558;28;20455;-76
2023/12/11 10:21:25;;;;;;;3.58;2.92;;;;;;;0.77;100.00;99854.06;5057023;28;20128;-70
2023/12/11 10:24:05;;;;;;;4.53;3.35;;;;;;;0.87;100.00;99865.38;5057033;28;20071;-70
2023/12/11 10:26:33;;;;;;;3.22;2.78;;;;;;;0.89;100.00;99871.34;5058197;28;20085;-71
2023/12/11 10:29:17;;;;;;;3.38;2.88;;;;;;;0.75;100.00;99848.09;5073492;28;20021;-69
2023/12/11 10:31:42;;;;;;;3.42;3.13;;;;;;;0.89;100.00;99868.69;5073106;28;20072;-72
2023/12/11 10:34:07;;;;;;;3.88;3.10;;;;;;;0.91;100.00;99873.81;5058135;28;20033;-68
2023/12/11 10:36:33;;;;;;;4.22;3.08;;;;;;;0.75;100.00;99857.84;5057418;28;20040;-68
2023/12/11 10:39:07;;;;;;;3.40;3.10;;;;;;;0.74;100.00;99858.84;5076139;28;20048;-70
2023/12/11 10:41:33;;;;;;;3.22;2.92;;;;;;;0.83;100.00;99857.88;5059898;28;20500;-71
2023/12/11 10:43:59;;;;;;;3.45;2.95;;;;;;;0.94;100.00;99881.44;5059788;28;20111;-70
2023/12/11 10:46:24;;;;;;;3.92;3.30;;;;;;;0.98;100.00;99889.91;5075618;28;20028;-68
2023/12/11 10:48:50;;;;;;;3.70;3.13;;;;;;;0.98;100.00;99893.38;5059564;28;20039;-68
2023/12/11 10:51:15;;;;;;;3.33;3.03;;;;;;;1.02;100.00;99889.41;5077330;28;20036;-68
2023/12/11 10:53:44;;;;;;;3.80;3.40;;;;;;;0.96;100.00;99883.91;5059100;28;20044;-68
2023/12/11 10:56:09;;;;;;;3.75;3.10;;;;;;;1.05;100.00;99894.38;5077076;28;20433;-68
2023/12/11 10:58:34;;;;;;;3.25;2.90;;;;;;;1.10;100.00;99896.56;5059464;28;20024;-68
2023/12/11 11:01:01;;;;;;;3.15;2.80;;;;;;;0.65;100.00;99818.25;5059501;28;20059;-68
2023/12/11 11:03:30;;;;;;;4.00;3.20;;;;;;;1.13;100.00;99901.56;5077461;28;20391;-68
2023/12/11 11:05:57;;;;;;;3.58;2.85;;;;;;;1.14;100.00;99892.59;5077657;28;20398;-67
2023/12/11 11:08:25;;;;;;;4.05;3.10;;;;;;;1.16;100.00;99894.13;5059463;28;20036;-68
2023/12/11 11:10:58;;;;;;;3.63;2.80;;;;;;;1.21;100.00;99896.28;5077773;28;20410;-68
2023/12/11 11:13:34;;;;;;;3.17;2.53;;;;;;;1.19;100.00;99900.88;5059065;28;20055;-68
2023/12/11 11:15:59;;;;;;;3.40;2.67;;;;;;;1.21;100.00;99906.88;5070900;28;20111;-68
2023/12/11 11:18:24;;;;;;;3.38;3.08;;;;;;;1.22;100.00;99905.03;5058587;28;20048;-68
2023/12/11 11:21:11;;;;;;;3.67;3.20;;;;;;;1.25;100.00;99905.56;5059345;28;20171;-69
2023/12/11 11:23:42;;;;;;;3.75;2.78;;;;;;;1.25;100.00;99905.56;5058915;28;20046;-68
2023/12/11 11:26:34;;;;;;;3.22;2.42;;;;;;;1.29;100.00;99911.34;5059716;28;20035;-68
2023/12/11 11:29:04;;;;;;;3.08;2.47;;;;;;;1.32;100.00;99911.03;5059118;28;20033;-67